Terminal Aerodrome Forecast
Issued by NWS

Home | Current Version | Previous Version | Text Only | Print | Product List | Glossary On
Versions: 1 2 3 4 5 6 7 8 9 10 11 12
000
FTAK31 PAJN 120541
TAFAWG
TAF
PAWG 120541Z 1206/1306 10008KT P6SM BKN150 WS020/15035KT
     FM121000 11012KT 6SM -RA SCT030 OVC050 WS020/16040KT
     FM121600 15008KT 5SM -RA BR BKN025 OVC035
      AMD LTD TO CLD VIS AND WIND 1206/1215=

USA.gov is the U.S. government's official web portal to all federal, state and local government web resources and services.